Time;durP1;ratioP1;P1;durP2;ratioP2;P2;SDS_P1;SDS_P2;PMS_P1;PMS_P2;Temp;Humidity;BMP_temperature;BMP_pressure;BME280_temperature;BME280_humidity;BME280_pressure;Samples;Min_cycle;Max_cycle;Signal;HPM_P1;HPM_P2
2022/04/07 00:00:05;;;;;;;1.13;1.02;;;;;;;18.51;46.70;99092.03;5079624;28;20494;-69
2022/04/07 00:02:30;;;;;;;1.67;1.30;;;;;;;18.52;46.80;99087.34;5113414;28;20047;-69
2022/04/07 00:04:56;;;;;;;1.20;1.10;;;;;;;18.51;46.40;99078.31;5114184;28;20044;-69
2022/04/07 00:07:21;;;;;;;0.95;0.95;;;;;;;18.50;46.75;99064.84;5113855;28;20028;-69
2022/04/07 00:09:47;;;;;;;1.83;1.02;;;;;;;18.50;46.61;99065.69;5113890;28;20111;-69
2022/04/07 00:12:12;;;;;;;2.67;1.02;;;;;;;18.50;46.42;99070.34;5113884;28;20060;-69
2022/04/07 00:14:37;;;;;;;1.13;0.90;;;;;;;18.48;46.68;99062.44;5113594;28;20036;-69
2022/04/07 00:17:03;;;;;;;1.52;1.10;;;;;;;18.50;46.57;99057.47;5095549;28;20535;-69
2022/04/07 00:19:29;;;;;;;1.00;0.88;;;;;;;18.49;46.41;99058.56;5079535;28;20038;-69
2022/04/07 00:21:57;;;;;;;0.95;0.80;;;;;;;18.48;46.48;99048.69;5114293;28;20031;-69
2022/04/07 00:24:23;;;;;;;1.00;1.00;;;;;;;18.47;46.41;99046.25;5096224;28;20337;-69
2022/04/07 00:26:49;;;;;;;1.67;0.90;;;;;;;18.46;46.55;99037.22;5113697;28;20039;-69
2022/04/07 00:29:15;;;;;;;1.30;1.08;;;;;;;18.48;46.39;99043.22;5114554;28;20028;-69
2022/04/07 00:31:40;;;;;;;1.27;0.88;;;;;;;18.49;46.37;99031.09;5098542;28;20411;-69
2022/04/07 00:34:06;;;;;;;1.65;0.98;;;;;;;18.48;46.43;99031.41;5117719;28;20035;-68
2022/04/07 00:36:32;;;;;;;1.20;1.10;;;;;;;18.47;46.36;99016.91;5117402;28;20376;-69
2022/04/07 00:38:57;;;;;;;1.13;0.90;;;;;;;18.48;46.39;99012.19;5117301;28;20035;-70
2022/04/07 00:41:23;;;;;;;1.00;0.90;;;;;;;18.47;46.34;99005.91;5099114;28;20086;-68
2022/04/07 00:43:52;;;;;;;2.00;1.08;;;;;;;18.48;46.25;98996.53;5117265;28;20023;-68
2022/04/07 00:46:18;;;;;;;0.95;0.85;;;;;;;18.49;46.35;99000.09;5117155;28;20116;-69
2022/04/07 00:48:44;;;;;;;2.03;0.98;;;;;;;18.49;46.44;98998.16;5117037;28;20072;-68
2022/04/07 00:51:10;;;;;;;0.90;0.80;;;;;;;18.50;46.23;98990.72;5117088;28;20032;-69
2022/04/07 00:53:35;;;;;;;1.27;0.90;;;;;;;18.48;46.31;98979.25;5099055;28;20451;-69
2022/04/07 00:56:01;;;;;;;1.90;0.98;;;;;;;18.47;46.28;98989.44;5117477;28;20071;-69
2022/04/07 00:58:30;;;;;;;1.90;1.00;;;;;;;18.47;46.32;98989.44;5116612;28;20081;-69
2022/04/07 01:00:59;;;;;;;0.88;0.70;;;;;;;18.46;46.35;98987.00;5081717;28;20028;-69
2022/04/07 01:03:25;;;;;;;1.42;1.00;;;;;;;18.46;46.30;98976.03;5117487;28;20062;-69
2022/04/07 01:05:51;;;;;;;1.65;0.82;;;;;;;18.45;46.14;98964.19;5116470;28;20077;-69
2022/04/07 01:08:16;;;;;;;1.35;0.90;;;;;;;18.43;46.25;98966.47;5098981;28;20417;-68
2022/04/07 01:10:43;;;;;;;2.50;1.05;;;;;;;18.45;46.36;98960.66;5099111;28;20032;-68
2022/04/07 01:13:11;;;;;;;1.40;0.93;;;;;;;18.44;46.27;98959.03;5116399;28;20024;-68
2022/04/07 01:15:37;;;;;;;2.45;1.05;;;;;;;18.45;46.42;98958.72;5081474;28;20038;-68
2022/04/07 01:18:02;;;;;;;2.42;1.10;;;;;;;18.46;46.28;98954.06;5098905;28;20118;-68
2022/04/07 01:20:28;;;;;;;1.55;1.00;;;;;;;18.44;46.44;98939.81;5116665;28;20056;-69
2022/04/07 01:22:56;;;;;;;1.83;0.77;;;;;;;18.44;46.47;98939.81;5116521;28;20103;-68
2022/04/07 01:25:22;;;;;;;1.35;0.95;;;;;;;18.44;46.41;98934.31;5116651;28;20028;-68
2022/04/07 01:27:49;;;;;;;2.40;1.13;;;;;;;18.44;46.28;98928.81;5116914;28;20047;-68
2022/04/07 01:30:15;;;;;;;1.70;0.82;;;;;;;18.44;46.21;98926.09;5116368;28;20475;-69
2022/04/07 01:32:49;;;;;;;0.88;0.70;;;;;;;18.44;46.36;98915.09;5116334;28;20034;-68
2022/04/07 01:35:16;;;;;;;1.27;0.88;;;;;;;18.41;46.46;98911.88;5116630;28;20055;-68
2022/04/07 01:37:44;;;;;;;0.90;0.90;;;;;;;18.40;46.12;98902.00;5116173;28;20035;-68
2022/04/07 01:40:13;;;;;;;1.40;1.00;;;;;;;18.42;46.17;98904.44;5116049;28;20054;-68
2022/04/07 01:42:39;;;;;;;1.20;0.80;;;;;;;18.41;46.25;98895.41;5115655;28;20031;-68
2022/04/07 01:45:06;;;;;;;1.85;1.00;;;;;;;18.41;46.29;98881.66;5097745;28;20476;-68
2022/04/07 01:47:35;;;;;;;1.88;0.98;;;;;;;18.43;46.18;98877.81;5116021;28;20027;-68
2022/04/07 01:50:06;;;;;;;1.08;0.68;;;;;;;18.41;46.29;98869.88;5116208;28;20039;-69
2022/04/07 01:52:33;;;;;;;2.28;1.17;;;;;;;18.41;46.09;98875.38;5115666;28;20034;-69
2022/04/07 01:55:00;;;;;;;2.03;0.93;;;;;;;18.40;45.99;98862.78;5115982;28;20088;-68
2022/04/07 01:57:26;;;;;;;1.55;0.80;;;;;;;18.41;46.23;98865.19;5115527;28;20460;-68
2022/04/07 01:59:53;;;;;;;2.70;0.90;;;;;;;18.41;46.00;98856.16;5115366;28;20391;-69
2022/04/07 02:02:21;;;;;;;1.60;0.98;;;;;;;18.41;46.08;98864.41;5097360;28;20098;-68
2022/04/07 02:04:57;;;;;;;1.17;0.75;;;;;;;18.40;46.20;98869.06;5115561;28;20035;-68
2022/04/07 02:07:27;;;;;;;2.10;0.85;;;;;;;18.41;46.05;98861.66;5115358;28;20028;-68
2022/04/07 02:09:52;;;;;;;1.77;1.10;;;;;;;18.39;46.19;98855.66;5115538;28;20475;-68
2022/04/07 02:12:20;;;;;;;1.80;1.02;;;;;;;18.40;46.18;98855.34;5115816;28;20038;-68
2022/04/07 02:14:46;;;;;;;1.73;0.95;;;;;;;18.40;46.17;98851.78;5115959;28;20077;-68
2022/04/07 02:17:11;;;;;;;2.00;1.10;;;;;;;18.39;46.25;98839.19;5115460;28;20472;-68
2022/04/07 02:19:37;;;;;;;2.50;1.08;;;;;;;18.39;46.05;98840.00;5115906;28;20119;-68
2022/04/07 02:22:03;;;;;;;2.42;1.15;;;;;;;18.39;45.97;98837.25;5115758;28;20028;-69
2022/04/07 02:24:28;;;;;;;2.40;1.13;;;;;;;18.40;46.21;98824.34;5115489;28;20375;-68
2022/04/07 02:26:53;;;;;;;2.03;1.00;;;;;;;18.39;46.13;98822.69;5096959;28;20100;-68
2022/04/07 02:29:19;;;;;;;1.85;0.90;;;;;;;18.38;46.12;98837.53;5114859;28;20064;-69
2022/04/07 02:31:44;;;;;;;1.33;0.85;;;;;;;18.38;46.12;98826.56;5115167;28;20139;-68
2022/04/07 02:34:09;;;;;;;1.50;1.17;;;;;;;18.38;45.97;98827.41;5115402;28;20031;-69
2022/04/07 02:36:35;;;;;;;2.30;1.15;;;;;;;18.37;46.37;98827.72;5115616;28;20509;-69
2022/04/07 02:39:00;;;;;;;1.95;1.02;;;;;;;18.37;45.87;98817.53;5096884;28;20034;-68
2022/04/07 02:41:26;;;;;;;1.55;0.93;;;;;;;18.36;45.94;98817.84;5096585;28;20040;-68
2022/04/07 02:43:52;;;;;;;1.10;0.77;;;;;;;18.36;46.08;98812.34;5114959;28;20119;-68
2022/04/07 02:46:17;;;;;;;1.92;0.88;;;;;;;18.35;45.85;98802.50;5097333;28;20035;-68
2022/04/07 02:48:43;;;;;;;2.47;1.10;;;;;;;18.35;46.07;98810.72;5115129;28;20027;-68
2022/04/07 02:51:08;;;;;;;1.80;1.02;;;;;;;18.34;45.86;98793.47;5115071;28;20027;-68
2022/04/07 02:53:34;;;;;;;2.83;1.30;;;;;;;18.33;45.95;98791.03;5095483;28;20039;-68
2022/04/07 02:55:59;;;;;;;1.67;1.10;;;;;;;18.33;45.81;98775.38;5114754;28;20063;-68
2022/04/07 02:58:24;;;;;;;1.88;0.90;;;;;;;18.33;45.79;98777.31;5096137;28;20039;-68
2022/04/07 03:00:50;;;;;;;2.25;1.10;;;;;;;18.32;45.78;98765.53;5079976;28;20118;-68
2022/04/07 03:03:15;;;;;;;2.85;1.20;;;;;;;18.33;45.75;98758.88;5114934;28;20219;-68
2022/04/07 03:05:41;;;;;;;2.45;1.00;;;;;;;18.33;45.61;98764.38;5114860;28;20079;-68
2022/04/07 03:08:06;;;;;;;2.42;1.30;;;;;;;18.34;45.79;98752.28;5096259;28;20448;-68
2022/04/07 03:10:32;;;;;;;1.52;0.88;;;;;;;18.34;45.60;98740.50;5114998;28;20039;-69
2022/04/07 03:12:57;;;;;;;1.63;0.90;;;;;;;18.32;45.66;98732.59;5096276;28;20118;-69
2022/04/07 03:15:23;;;;;;;2.13;0.95;;;;;;;18.33;45.67;98736.94;5096207;28;20468;-69
2022/04/07 03:17:48;;;;;;;1.63;1.00;;;;;;;18.33;45.75;98723.22;5096056;28;20063;-69
2022/04/07 03:20:13;;;;;;;1.90;1.02;;;;;;;18.33;45.46;98722.41;5096247;28;20074;-69
2022/04/07 03:22:39;;;;;;;1.52;0.98;;;;;;;18.32;45.50;98705.13;5096468;28;20447;-69
2022/04/07 03:25:05;;;;;;;1.17;0.80;;;;;;;18.31;45.57;98698.03;5114267;28;20070;-69
2022/04/07 03:27:30;;;;;;;3.35;1.23;;;;;;;18.33;45.69;98700.44;5114603;28;20038;-69
2022/04/07 03:29:55;;;;;;;2.03;1.00;;;;;;;18.34;45.49;98707.56;5096081;28;20032;-69
2022/04/07 03:32:21;;;;;;;1.33;0.90;;;;;;;18.34;45.25;98696.59;5113940;28;20027;-69
2022/04/07 03:34:46;;;;;;;2.13;1.10;;;;;;;18.33;45.46;98712.22;5095756;28;20061;-69
2022/04/07 03:37:12;;;;;;;3.25;1.27;;;;;;;18.32;45.01;98674.94;5095915;28;20036;-68
2022/04/07 03:39:37;;;;;;;1.63;1.08;;;;;;;18.32;45.15;98693.34;5079947;28;20038;-68
2022/04/07 03:42:03;;;;;;;2.92;1.23;;;;;;;18.31;45.16;98689.78;5095622;28;20065;-68
2022/04/07 03:44:28;;;;;;;3.13;1.10;;;;;;;18.30;45.27;98682.69;5096309;28;20035;-68
2022/04/07 03:46:54;;;;;;;2.40;1.20;;;;;;;18.31;45.23;98667.84;5114089;28;20111;-68
2022/04/07 03:49:20;;;;;;;3.13;1.08;;;;;;;18.30;45.31;98682.69;5114108;28;20414;-68
2022/04/07 03:51:46;;;;;;;2.83;1.13;;;;;;;18.30;45.19;98670.91;5095821;28;20114;-68
2022/04/07 03:54:12;;;;;;;1.55;1.00;;;;;;;18.30;45.45;98657.97;5113981;28;20139;-69
2022/04/07 03:56:38;;;;;;;2.72;1.20;;;;;;;18.29;45.13;98655.53;5113656;28;20028;-69
2022/04/07 03:59:03;;;;;;;3.42;1.20;;;;;;;18.29;45.10;98650.88;5114272;28;20038;-69
2022/04/07 04:01:29;;;;;;;3.15;1.25;;;;;;;18.29;45.07;98645.41;5095253;28;20449;-69
2022/04/07 04:03:55;;;;;;;3.22;1.40;;;;;;;18.29;45.16;98617.94;5114264;28;20032;-69
2022/04/07 04:06:20;;;;;;;1.20;0.80;;;;;;;18.29;45.08;98612.47;5098547;28;20473;-70
2022/04/07 04:08:46;;;;;;;2.85;1.00;;;;;;;18.28;45.13;98610.84;5099684;28;20496;-69
2022/04/07 04:11:14;;;;;;;2.08;1.10;;;;;;;18.29;45.13;98597.91;5117636;28;20034;-69
2022/04/07 04:13:40;;;;;;;2.22;1.27;;;;;;;18.28;45.08;98599.84;5117846;28;20084;-69
2022/04/07 04:16:06;;;;;;;2.42;1.15;;;;;;;18.28;45.10;98580.63;5118090;28;20027;-69
2022/04/07 04:18:32;;;;;;;2.97;1.30;;;;;;;18.30;44.87;98577.56;5117767;28;20055;-69
2022/04/07 04:20:57;;;;;;;2.03;1.13;;;;;;;18.29;44.89;98559.47;5099391;28;20069;-69
2022/04/07 04:23:23;;;;;;;5.10;1.08;;;;;;;18.29;44.84;98538.34;5117681;28;20028;-69
2022/04/07 04:25:49;;;;;;;1.25;0.80;;;;;;;18.29;44.89;98530.13;5117544;28;20035;-69
2022/04/07 04:28:14;;;;;;;2.45;1.00;;;;;;;18.30;44.82;98522.69;5099711;28;20089;-69
2022/04/07 04:30:40;;;;;;;1.35;1.00;;;;;;;18.29;44.86;98534.78;5117527;28;20040;-69
2022/04/07 04:33:05;;;;;;;1.33;0.80;;;;;;;18.28;44.97;98535.91;5099358;28;20481;-69
2022/04/07 04:35:30;;;;;;;1.42;1.00;;;;;;;18.28;44.77;98536.72;5099089;28;20070;-69
2022/04/07 04:37:56;;;;;;;2.03;1.20;;;;;;;18.28;44.84;98538.63;5117947;28;20035;-69
2022/04/07 04:40:21;;;;;;;2.35;1.23;;;;;;;18.27;44.75;98510.41;5117545;28;20543;-69
2022/04/07 04:42:46;;;;;;;2.20;1.08;;;;;;;18.28;44.78;98533.97;5099107;28;20032;-68
2022/04/07 04:45:12;;;;;;;2.25;0.95;;;;;;;18.26;44.80;98522.50;5117239;28;20027;-68
2022/04/07 04:47:37;;;;;;;3.00;0.98;;;;;;;18.28;44.76;98522.16;5117474;28;20031;-69
2022/04/07 04:50:05;;;;;;;2.05;1.05;;;;;;;18.28;44.85;98505.72;5117153;28;20027;-69
2022/04/07 04:52:30;;;;;;;1.27;0.70;;;;;;;18.25;44.97;98493.47;5116987;28;20028;-69
2022/04/07 04:54:56;;;;;;;1.50;0.90;;;;;;;18.23;44.81;98485.56;5117266;28;20251;-69
2022/04/07 04:57:21;;;;;;;1.75;0.90;;;;;;;18.25;45.07;98485.22;5098750;28;20024;-68
2022/04/07 04:59:46;;;;;;;1.83;0.70;;;;;;;18.24;45.15;98483.59;5099529;28;20103;-68
2022/04/07 05:02:12;;;;;;;0.82;0.73;;;;;;;18.25;45.03;98466.00;5117430;28;20052;-68
2022/04/07 05:04:37;;;;;;;1.88;1.00;;;;;;;18.24;45.09;98450.66;5117155;28;20035;-69
2022/04/07 05:07:03;;;;;;;2.22;1.00;;;;;;;18.25;45.18;98441.31;5081648;28;20051;-69
2022/04/07 05:09:28;;;;;;;1.30;0.90;;;;;;;18.24;45.26;98426.75;5098935;28;20024;-69
2022/04/07 05:11:54;;;;;;;0.93;0.70;;;;;;;18.25;45.25;98430.34;5116450;28;20391;-69
2022/04/07 05:14:19;;;;;;;2.40;1.20;;;;;;;18.25;45.64;98438.56;5116405;28;20027;-69
2022/04/07 05:16:45;;;;;;;0.75;0.63;;;;;;;18.24;45.32;98440.50;5115150;28;20036;-68
2022/04/07 05:19:10;;;;;;;1.45;0.73;;;;;;;18.24;45.40;98423.22;5098135;28;20032;-68
2022/04/07 05:21:35;;;;;;;1.27;0.60;;;;;;;18.22;45.41;98429.03;5097944;28;20523;-68
2022/04/07 05:24:01;;;;;;;1.42;0.82;;;;;;;18.22;45.22;98417.25;5081740;28;20031;-68
2022/04/07 05:26:26;;;;;;;1.27;0.80;;;;;;;18.23;45.40;98410.63;5116583;28;20032;-69
2022/04/07 05:28:52;;;;;;;1.27;0.70;;;;;;;18.22;45.41;98396.09;5099024;28;20123;-69
2022/04/07 05:31:17;;;;;;;1.42;0.85;;;;;;;18.22;45.50;98393.38;5116131;28;20467;-62
2022/04/07 05:33:43;;;;;;;2.03;0.80;;;;;;;18.15;45.68;98386.75;5116360;28;20059;-61
2022/04/07 05:36:08;;;;;;;1.73;0.70;;;;;;;17.92;46.66;98392.44;5098099;28;20035;-62
2022/04/07 05:38:33;;;;;;;2.17;0.93;;;;;;;17.72;47.49;98402.09;5116262;28;20114;-62
2022/04/07 05:40:59;;;;;;;2.05;0.82;;;;;;;17.51;48.08;98388.22;5116083;28;20032;-62
2022/04/07 05:43:24;;;;;;;1.65;1.00;;;;;;;17.41;49.12;98369.34;5116143;28;20375;-64
2022/04/07 05:45:50;;;;;;;2.00;0.88;;;;;;;17.36;49.30;98387.56;5116135;28;20076;-64
2022/04/07 05:48:17;;;;;;;1.17;0.70;;;;;;;17.36;49.29;98359.34;5098698;28;20027;-64
2022/04/07 05:50:42;;;;;;;1.33;1.00;;;;;;;17.39;49.53;98345.00;5115958;28;20028;-64
2022/04/07 05:53:08;;;;;;;0.63;0.60;;;;;;;17.50;49.13;98337.28;5116231;28;20478;-65
2022/04/07 05:55:34;;;;;;;0.60;0.60;;;;;;;17.62;48.96;98323.72;5098386;28;20059;-64
2022/04/07 05:58:03;;;;;;;0.52;0.50;;;;;;;17.74;48.61;98320.31;5097636;28;20027;-64
2022/04/07 06:00:29;;;;;;;1.15;0.63;;;;;;;17.84;48.49;98311.75;5115704;28;20023;-66
2022/04/07 06:02:54;;;;;;;1.52;0.75;;;;;;;17.94;48.10;98304.31;5115895;28;20491;-64
2022/04/07 06:05:20;;;;;;;0.65;0.52;;;;;;;18.02;47.91;98306.25;5097135;28;20035;-64
2022/04/07 06:07:46;;;;;;;2.17;0.90;;;;;;;18.10;47.97;98299.13;5097065;28;20036;-64
2022/04/07 06:10:12;;;;;;;0.85;0.43;;;;;;;18.17;47.56;98293.94;5096939;28;20036;-64
2022/04/07 06:12:42;;;;;;;1.50;0.50;;;;;;;18.21;47.77;98286.66;5080588;28;20058;-66
2022/04/07 06:15:08;;;;;;;1.60;0.68;;;;;;;18.28;47.60;98277.91;5115099;28;20032;-71
2022/04/07 06:17:34;;;;;;;1.05;0.85;;;;;;;18.32;47.46;98279.69;5115253;28;20027;-65
2022/04/07 06:20:00;;;;;;;0.82;0.70;;;;;;;18.37;47.32;98276.75;5115152;28;20035;-66
2022/04/07 06:22:25;;;;;;;0.57;0.50;;;;;;;18.41;47.42;98258.47;5115447;28;20024;-66
2022/04/07 06:24:50;;;;;;;0.75;0.70;;;;;;;18.45;47.30;98260.56;5114914;28;20032;-64
2022/04/07 06:27:16;;;;;;;0.95;0.70;;;;;;;18.46;47.14;98249.25;5096803;28;20036;-71
2022/04/07 06:29:41;;;;;;;1.25;0.60;;;;;;;18.50;46.95;98244.72;5114781;28;20111;-66
2022/04/07 06:32:07;;;;;;;1.27;0.60;;;;;;;18.53;47.18;98241.31;5114508;28;20511;-65
2022/04/07 06:34:33;;;;;;;0.80;0.50;;;;;;;18.56;47.05;98237.09;5115109;28;20087;-65
2022/04/07 06:37:00;;;;;;;1.25;0.77;;;;;;;18.59;46.85;98234.47;5115562;28;20039;-65
2022/04/07 06:39:25;;;;;;;1.25;0.88;;;;;;;18.59;46.85;98231.72;5115054;28;20027;-64
2022/04/07 06:41:51;;;;;;;0.60;0.60;;;;;;;18.62;47.15;98210.25;5097228;28;20059;-65
2022/04/07 06:44:19;;;;;;;0.70;0.52;;;;;;;18.62;46.70;98197.31;5097160;28;20066;-65
2022/04/07 06:46:44;;;;;;;1.67;0.80;;;;;;;18.65;46.77;98193.09;5115002;28;20058;-65
2022/04/07 06:49:09;;;;;;;0.88;0.50;;;;;;;18.66;46.90;98180.97;5096554;28;20039;-64
2022/04/07 06:51:35;;;;;;;0.70;0.50;;;;;;;18.67;46.77;98177.09;5096492;28;20468;-64
2022/04/07 06:54:00;;;;;;;0.93;0.70;;;;;;;18.69;46.67;98164.63;5114952;28;20027;-65
2022/04/07 06:56:26;;;;;;;0.60;0.60;;;;;;;18.71;46.62;98159.59;5096314;28;20396;-65
2022/04/07 06:58:54;;;;;;;0.70;0.50;;;;;;;18.71;46.80;98158.81;5096372;28;20042;-64
2022/04/07 07:01:19;;;;;;;0.70;0.52;;;;;;;18.73;46.66;98142.78;5114321;28;20081;-64
2022/04/07 07:03:45;;;;;;;0.82;0.68;;;;;;;18.73;46.72;98138.13;5114909;28;20032;-64
2022/04/07 07:06:10;;;;;;;1.52;0.70;;;;;;;18.73;46.74;98127.13;5080023;28;20027;-64
2022/04/07 07:08:36;;;;;;;1.40;0.40;;;;;;;18.73;46.80;98118.91;5114817;28;20037;-64
2022/04/07 07:11:01;;;;;;;0.50;0.50;;;;;;;18.75;46.83;98111.13;5115044;28;20042;-65
2022/04/07 07:13:26;;;;;;;0.60;0.60;;;;;;;18.79;46.82;98099.44;5114754;28;20035;-65
2022/04/07 07:15:53;;;;;;;2.88;0.70;;;;;;;18.81;46.87;98091.66;5114155;28;20032;-63
2022/04/07 07:18:18;;;;;;;1.25;0.63;;;;;;;18.80;47.00;98088.13;5114451;28;20042;-63
2022/04/07 07:20:44;;;;;;;1.40;0.57;;;;;;;18.86;47.05;98075.03;5114371;28;20032;-62
2022/04/07 07:23:09;;;;;;;0.85;0.55;;;;;;;18.89;46.89;98061.41;5114305;28;20084;-62
2022/04/07 07:25:39;;;;;;;0.70;0.68;;;;;;;18.95;46.93;98061.19;5114554;28;20085;-63
2022/04/07 07:28:05;;;;;;;1.00;0.43;;;;;;;18.98;46.73;98047.56;5114280;28;20459;-64
2022/04/07 07:30:30;;;;;;;0.82;0.50;;;;;;;19.02;46.86;98036.72;5113992;28;20039;-62
2022/04/07 07:32:56;;;;;;;0.60;0.60;;;;;;;19.05;46.88;98027.78;5114307;28;20453;-63
2022/04/07 07:35:23;;;;;;;0.77;0.70;;;;;;;19.09;46.86;98017.75;5079212;28;20114;-68
2022/04/07 07:37:53;;;;;;;0.40;0.40;;;;;;;19.14;46.85;98028.50;5113765;28;20031;-64
2022/04/07 07:40:21;;;;;;;0.73;0.60;;;;;;;19.19;46.84;98019.22;5114828;28;20071;-64
2022/04/07 07:42:48;;;;;;;0.70;0.70;;;;;;;19.21;46.86;98012.25;5117888;28;20032;-63
2022/04/07 07:45:15;;;;;;;0.77;0.52;;;;;;;19.25;47.10;98026.09;5100075;28;20118;-63
2022/04/07 07:47:41;;;;;;;0.63;0.40;;;;;;;19.28;47.08;98196.66;5100522;28;20068;-63
2022/04/07 07:50:07;;;;;;;1.30;0.65;;;;;;;19.34;46.82;98212.91;5118144;28;20027;-64
2022/04/07 07:52:33;;;;;;;0.70;0.55;;;;;;;19.37;46.99;98226.00;5118682;28;20039;-63
2022/04/07 07:54:59;;;;;;;0.60;0.38;;;;;;;19.39;46.61;98212.72;5118152;28;20031;-63
2022/04/07 07:57:25;;;;;;;2.00;0.70;;;;;;;19.42;46.39;98209.28;5100780;28;20028;-64
2022/04/07 07:59:51;;;;;;;0.63;0.40;;;;;;;19.44;46.46;98191.31;5117712;28;20020;-64
2022/04/07 08:02:18;;;;;;;1.23;0.50;;;;;;;19.47;46.21;98189.81;5117904;28;20482;-63
2022/04/07 08:04:44;;;;;;;0.57;0.30;;;;;;;19.50;46.32;98185.59;5100120;28;20038;-63
2022/04/07 08:07:09;;;;;;;1.13;0.47;;;;;;;19.50;47.01;98200.13;5099560;28;20031;-65
2022/04/07 08:09:35;;;;;;;1.75;0.60;;;;;;;19.54;46.56;98189.28;5117927;28;20110;-63
2022/04/07 08:12:02;;;;;;;0.38;0.32;;;;;;;19.57;46.29;98183.09;5117915;28;20039;-63
2022/04/07 08:14:27;;;;;;;2.05;0.47;;;;;;;19.59;46.42;98170.63;5100286;28;20032;-63
2022/04/07 08:16:53;;;;;;;1.75;0.47;;;;;;;19.62;46.37;98164.44;5118129;28;20034;-63
2022/04/07 08:19:19;;;;;;;1.23;0.50;;;;;;;19.65;46.44;98165.72;5100395;28;20058;-63
2022/04/07 08:21:44;;;;;;;0.90;0.47;;;;;;;19.68;46.58;98165.03;5099338;28;20032;-63
2022/04/07 08:24:10;;;;;;;1.15;0.22;;;;;;;19.73;46.53;98177.75;5099551;28;20035;-63
2022/04/07 08:26:36;;;;;;;0.50;0.50;;;;;;;19.76;46.49;98174.31;5099262;28;20080;-63
2022/04/07 08:29:01;;;;;;;1.27;0.68;;;;;;;19.78;46.31;98167.38;5099174;28;20392;-63
2022/04/07 08:31:26;;;;;;;0.50;0.30;;;;;;;19.81;46.39;98149.34;5117546;28;20459;-63
2022/04/07 08:33:52;;;;;;;0.90;0.47;;;;;;;19.85;46.44;98166.78;5099201;28;20115;-63
2022/04/07 08:36:17;;;;;;;0.65;0.40;;;;;;;19.87;46.73;98171.94;5117998;28;20406;-63
2022/04/07 08:38:43;;;;;;;1.35;0.43;;;;;;;19.90;46.22;98171.25;5117948;28;20032;-63
2022/04/07 08:41:11;;;;;;;0.50;0.35;;;;;;;19.91;46.41;98165.41;5099489;28;20444;-62
2022/04/07 08:43:39;;;;;;;0.90;0.50;;;;;;;19.93;46.48;98162.31;5117462;28;20043;-64
2022/04/07 08:46:11;;;;;;;0.45;0.40;;;;;;;19.96;46.72;98156.13;5117177;28;20035;-63
2022/04/07 08:48:38;;;;;;;0.43;0.30;;;;;;;19.97;46.83;98155.81;5117244;28;20065;-62
2022/04/07 08:51:05;;;;;;;0.32;0.30;;;;;;;20.00;46.37;98151.53;5117763;28;20039;-63
2022/04/07 08:53:32;;;;;;;0.38;0.32;;;;;;;20.01;46.64;98150.41;5098696;28;20035;-63
2022/04/07 08:56:02;;;;;;;0.47;0.40;;;;;;;20.04;46.49;98148.91;5117030;28;20027;-63
2022/04/07 08:58:28;;;;;;;0.75;0.40;;;;;;;20.03;46.30;98153.59;5117329;28;20050;-63
2022/04/07 09:00:53;;;;;;;3.22;0.30;;;;;;;20.06;46.06;98161.16;5117214;28;20028;-63
2022/04/07 09:03:18;;;;;;;0.50;0.50;;;;;;;20.06;46.13;98152.91;5117198;28;20043;-63
2022/04/07 09:05:54;;;;;;;1.45;0.30;;;;;;;20.09;46.24;98149.50;5098535;28;20107;-63
2022/04/07 09:08:20;;;;;;;0.82;0.50;;;;;;;20.08;45.95;98149.84;5098577;28;20031;-63
2022/04/07 09:10:55;;;;;;;0.85;0.50;;;;;;;20.12;46.05;98162.56;5116749;28;20031;-63
2022/04/07 09:13:20;;;;;;;0.65;0.50;;;;;;;20.11;45.90;98151.91;5116700;28;20032;-63
2022/04/07 09:15:47;;;;;;;0.43;0.30;;;;;;;20.13;45.66;98152.34;5117036;28;20027;-63
2022/04/07 09:18:21;;;;;;;0.30;0.30;;;;;;;20.13;45.88;98158.66;5116725;28;20089;-63
2022/04/07 09:20:46;;;;;;;0.63;0.40;;;;;;;20.14;45.94;98167.72;5117183;28;20024;-63
2022/04/07 09:23:12;;;;;;;0.80;0.60;;;;;;;20.16;45.76;98160.69;5099006;28;20047;-63
2022/04/07 09:25:44;;;;;;;0.85;0.50;;;;;;;20.19;45.88;98166.69;5116411;28;20051;-63
2022/04/07 09:28:11;;;;;;;;;;;;;;;20.21;45.73;98158.88;5098995;28;20024;-63
2022/04/07 09:30:41;;;;;;;0.47;0.30;;;;;;;20.17;45.75;98164.28;5098405;28;20011;-63
2022/04/07 09:33:20;;;;;;;1.27;0.45;;;;;;;20.22;45.98;98161.28;5098127;28;20031;-63
2022/04/07 09:36:03;;;;;;;0.43;0.32;;;;;;;20.24;45.69;98178.28;5116876;28;20139;-63
2022/04/07 09:38:32;;;;;;;0.40;0.40;;;;;;;20.24;45.62;98180.19;5116247;28;20024;-63
2022/04/07 09:41:13;;;;;;;0.30;0.30;;;;;;;20.26;45.60;98181.47;5116122;28;20043;-63
2022/04/07 09:43:46;;;;;;;0.20;0.20;;;;;;;20.24;45.57;98175.53;5116469;28;20115;-63
2022/04/07 09:46:20;;;;;;;0.38;0.30;;;;;;;20.27;45.55;98187.75;5097973;28;20028;-64
2022/04/07 09:48:59;;;;;;;0.63;0.30;;;;;;;20.29;45.39;98188.25;5098320;28;20062;-63
2022/04/07 09:51:27;;;;;;;0.77;0.45;;;;;;;20.29;44.90;98185.50;5116496;28;20036;-63
2022/04/07 09:53:55;;;;;;;0.35;0.35;;;;;;;20.28;44.89;98178.38;5115699;28;20028;-63
2022/04/07 09:56:21;;;;;;;1.30;0.68;;;;;;;20.28;44.65;98172.88;5116377;28;20094;-63
2022/04/07 09:58:47;;;;;;;0.30;0.30;;;;;;;20.29;44.65;98168.97;5115911;28;20062;-63
2022/04/07 10:01:13;;;;;;;0.95;0.50;;;;;;;20.31;44.34;98185.94;5080739;28;20027;-63
2022/04/07 10:03:39;;;;;;;0.88;0.60;;;;;;;20.30;44.27;98170.59;5096604;28;20097;-63
2022/04/07 10:06:06;;;;;;;0.77;0.60;;;;;;;20.30;44.25;98176.88;5080506;28;20036;-63
2022/04/07 10:08:33;;;;;;;0.55;0.40;;;;;;;20.29;44.12;98185.50;5097348;28;20399;-63
2022/04/07 10:10:59;;;;;;;0.70;0.40;;;;;;;20.29;43.70;98179.97;5097028;28;20027;-63
2022/04/07 10:13:26;;;;;;;0.98;0.55;;;;;;;20.30;43.79;98174.13;5115603;28;20460;-63
2022/04/07 10:15:53;;;;;;;0.43;0.43;;;;;;;20.32;44.01;98193.06;5115529;28;20047;-63
2022/04/07 10:18:27;;;;;;;0.47;0.32;;;;;;;20.32;44.27;98182.84;5115487;28;20036;-63
2022/04/07 10:20:57;;;;;;;0.50;0.50;;;;;;;20.33;44.84;98194.66;5115353;28;20059;-61
2022/04/07 10:23:53;;;;;;;0.77;0.30;;;;;;;20.37;44.58;98205.78;5115585;28;20406;-62
2022/04/07 10:26:21;;;;;;;2.60;0.43;;;;;;;20.32;41.41;98193.84;5115496;28;20031;-62
2022/04/07 10:28:55;;;;;;;2.00;0.77;;;;;;;20.16;40.74;98215.75;5115249;28;20028;-63
2022/04/07 10:31:22;;;;;;;1.08;0.60;;;;;;;19.85;38.16;98188.78;5114862;28;20100;-63
2022/04/07 10:33:47;;;;;;;1.02;0.70;;;;;;;19.61;38.38;98236.28;5115080;28;20467;-65
2022/04/07 10:36:16;;;;;;;2.33;0.82;;;;;;;19.45;38.09;98189.38;5114840;28;20059;-66
2022/04/07 10:38:47;;;;;;;1.10;0.60;;;;;;;19.37;38.85;98204.81;5115014;28;20058;-63
2022/04/07 10:41:38;;;;;;;0.80;0.65;;;;;;;19.41;40.69;98222.25;5115233;28;20024;-63
2022/04/07 10:44:08;;;;;;;7.55;0.85;;;;;;;19.47;39.76;98220.06;5115279;28;20032;-63
2022/04/07 10:46:33;;;;;;;1.63;0.90;;;;;;;19.51;39.46;98221.00;5114987;28;20188;-63
2022/04/07 10:49:04;;;;;;;1.30;0.70;;;;;;;19.57;39.76;98236.13;5114646;28;20172;-63
2022/04/07 10:52:06;;;;;;;1.45;0.88;;;;;;;19.62;40.46;98251.63;5115058;28;20459;-63
2022/04/07 10:54:32;;;;;;;2.00;0.57;;;;;;;19.64;39.58;98239.16;5114820;28;20075;-63
2022/04/07 10:57:02;;;;;;;2.05;0.77;;;;;;;19.66;39.34;98240.75;5114733;28;20031;-63
2022/04/07 10:59:28;;;;;;;2.10;0.80;;;;;;;19.70;39.32;98260.94;5079954;28;20566;-63
2022/04/07 11:01:59;;;;;;;2.80;0.93;;;;;;;19.71;39.96;98246.03;5114552;28;20104;-63
2022/04/07 11:04:24;;;;;;;1.30;0.90;;;;;;;19.69;39.61;98265.63;5114626;28;20028;-63
2022/04/07 11:07:02;;;;;;;1.45;0.75;;;;;;;19.72;40.55;98264.94;5114608;28;20031;-63
2022/04/07 11:09:49;;;;;;;0.68;0.60;;;;;;;19.73;40.33;98263.03;5096585;28;20027;-63
2022/04/07 11:12:28;;;;;;;2.10;0.80;;;;;;;19.70;39.99;98278.25;5114161;28;20390;-63
2022/04/07 11:15:02;;;;;;;2.80;0.80;;;;;;;19.70;40.72;98270.00;5113739;28;20517;-63
2022/04/07 11:17:34;;;;;;;1.90;1.10;;;;;;;19.72;39.93;98278.69;5114739;28;20027;-63
2022/04/07 11:20:21;;;;;;;1.50;0.80;;;;;;;19.73;40.45;98296.03;5114126;28;20039;-63
2022/04/07 11:22:51;;;;;;;1.10;0.77;;;;;;;19.72;40.03;98286.16;5114752;28;20027;-63
2022/04/07 11:25:36;;;;;;;1.35;0.90;;;;;;;19.73;40.44;98285.81;5114534;28;20027;-63
2022/04/07 11:28:07;;;;;;;1.30;0.68;;;;;;;19.73;40.20;98288.56;5114718;28;20056;-63
2022/04/07 11:30:43;;;;;;;1.95;1.13;;;;;;;19.73;40.42;98318.84;5113944;28;20078;-63
2022/04/07 11:33:20;;;;;;;3.15;0.90;;;;;;;19.74;40.44;98314.94;5114570;28;20456;-63